createdAt,value
2023-02-06T00:01:22.425Z,100613.41
2023-02-06T00:03:49.826Z,100605.09
2023-02-06T00:06:18.720Z,100606.78
2023-02-06T00:08:46.491Z,100606.84
2023-02-06T00:11:16.846Z,100610.22
2023-02-06T00:13:45.076Z,100611.91
2023-02-06T00:16:17.320Z,100613.56
2023-02-06T00:18:44.858Z,100617.75
2023-02-06T00:21:12.558Z,100616.16
2023-02-06T00:23:41.413Z,100612.84
2023-02-06T00:26:08.697Z,100612.78
2023-02-06T00:28:37.867Z,100617.03
2023-02-06T00:31:06.113Z,100612.09
2023-02-06T00:33:33.938Z,100618.84
2023-02-06T00:36:01.586Z,100613.84
2023-02-06T00:38:29.733Z,100613.09
2023-02-06T00:41:00.170Z,100616.34
2023-02-06T00:43:27.697Z,100618.84
2023-02-06T00:45:58.168Z,100623.00
2023-02-06T00:48:26.146Z,100624.63
2023-02-06T00:50:54.215Z,100615.53
2023-02-06T00:53:22.137Z,100624.94
2023-02-06T00:55:49.658Z,100612.59
2023-02-06T00:58:18.334Z,100624.00
2023-02-06T01:00:45.860Z,100615.81
2023-02-06T01:03:13.277Z,100616.66
2023-02-06T01:05:40.546Z,100617.44
2023-02-06T01:08:07.847Z,100616.59
2023-02-06T01:10:35.260Z,100625.75
2023-02-06T01:13:02.898Z,100626.63
2023-02-06T01:15:31.573Z,100618.28
2023-02-06T01:17:58.812Z,100623.31
2023-02-06T01:20:26.039Z,100613.34
2023-02-06T01:22:53.352Z,100614.25
2023-02-06T01:25:20.695Z,100630.22
2023-02-06T01:27:48.102Z,100626.91
2023-02-06T01:30:15.459Z,100630.25
2023-02-06T01:32:44.130Z,100621.16
2023-02-06T01:35:12.267Z,100615.44
2023-02-06T01:37:41.171Z,100628.63
2023-02-06T01:40:12.880Z,100625.41
2023-02-06T01:42:40.858Z,100630.47
2023-02-06T01:45:42.366Z,100625.63
2023-02-06T01:48:15.479Z,100628.28
2023-02-06T01:50:46.589Z,100629.19
2023-02-06T01:53:16.783Z,100631.63
2023-02-06T01:55:46.967Z,100626.75
2023-02-06T01:58:19.557Z,100626.06
2023-02-06T02:00:49.017Z,100623.75
2023-02-06T02:03:17.986Z,100632.03
2023-02-06T02:05:47.466Z,100632.03
2023-02-06T02:08:20.459Z,100634.53
2023-02-06T02:10:47.809Z,100622.84
2023-02-06T02:13:16.589Z,100636.34
2023-02-06T02:15:55.081Z,100616.66
2023-02-06T02:18:35.782Z,100639.88
2023-02-06T02:21:50.429Z,100643.25
2023-02-06T02:24:25.503Z,100653.31
2023-02-06T02:27:36.453Z,100641.81
2023-02-06T02:30:33.185Z,100654.22
2023-02-06T02:33:26.168Z,100653.63
2023-02-06T02:36:03.157Z,100662.84
2023-02-06T02:38:44.046Z,100655.41
2023-02-06T02:41:19.151Z,100661.28
2023-02-06T02:43:54.587Z,100658.78
2023-02-06T02:46:26.842Z,100652.97
2023-02-06T02:48:57.069Z,100662.03
2023-02-06T02:51:26.244Z,100662.00
2023-02-06T02:53:56.584Z,100650.56
2023-02-06T02:56:25.468Z,100671.31
2023-02-06T02:58:58.859Z,100667.25
2023-02-06T03:01:32.148Z,100670.53
2023-02-06T03:04:07.075Z,100663.84
2023-02-06T03:07:08.314Z,100672.06
2023-02-06T03:09:48.573Z,100666.31
2023-02-06T03:12:25.185Z,100661.31
2023-02-06T03:14:59.886Z,100667.16
2023-02-06T03:17:35.671Z,100670.59
2023-02-06T03:20:05.494Z,100675.59
2023-02-06T03:22:36.505Z,100665.59
2023-02-06T03:25:07.228Z,100664.03
2023-02-06T03:27:36.258Z,100672.28
2023-02-06T03:30:06.362Z,100663.94
2023-02-06T03:32:36.797Z,100673.09
2023-02-06T03:35:10.755Z,100676.47
2023-02-06T03:37:40.971Z,100679.75
2023-02-06T03:40:09.666Z,100661.59
2023-02-06T03:42:41.026Z,100673.81
2023-02-06T03:45:14.748Z,100673.09
2023-02-06T03:47:44.163Z,100671.31
2023-02-06T03:50:14.093Z,100677.97
2023-02-06T03:52:47.431Z,100677.19
2023-02-06T03:55:19.572Z,100664.97
2023-02-06T03:57:51.980Z,100668.97
2023-02-06T04:00:19.842Z,100675.69
2023-02-06T04:02:49.454Z,100681.53
2023-02-06T04:05:17.740Z,100679.16
2023-02-06T04:07:46.435Z,100668.31
2023-02-06T04:10:13.785Z,100682.50
2023-02-06T04:12:41.234Z,100682.53
2023-02-06T04:15:08.890Z,100675.94
2023-02-06T04:17:53.666Z,100684.19
2023-02-06T04:20:23.983Z,100679.31
2023-02-06T04:22:52.564Z,100673.63
2023-02-06T04:25:20.041Z,100686.88
2023-02-06T04:27:47.336Z,100681.03
2023-02-06T04:30:15.807Z,100676.06
2023-02-06T04:32:43.135Z,100678.53
2023-02-06T04:35:10.828Z,100679.31
2023-02-06T04:37:38.489Z,100680.94
2023-02-06T04:40:07.833Z,100676.81
2023-02-06T04:42:35.127Z,100675.09
2023-02-06T04:45:02.389Z,100686.69
2023-02-06T04:47:30.941Z,100683.31
2023-02-06T04:49:58.164Z,100688.38
2023-02-06T04:52:25.687Z,100686.75
2023-02-06T04:54:52.936Z,100687.59
2023-02-06T04:57:21.651Z,100690.22
2023-02-06T04:59:48.930Z,100698.59
2023-02-06T05:02:16.373Z,100701.94
2023-02-06T05:04:43.848Z,100692.84
2023-02-06T05:07:11.094Z,100697.09
2023-02-06T05:09:38.443Z,100698.78
2023-02-06T05:12:05.984Z,100693.78
2023-02-06T05:14:34.705Z,100707.09
2023-02-06T05:17:01.838Z,100700.50
2023-02-06T05:19:29.514Z,100685.75
2023-02-06T05:21:56.931Z,100704.72
2023-02-06T05:24:24.459Z,100697.28
2023-02-06T05:26:51.813Z,100702.22
2023-02-06T05:29:19.104Z,100699.72
2023-02-06T05:31:47.931Z,100695.56
2023-02-06T05:34:15.608Z,100701.38
2023-02-06T05:36:43.037Z,100702.28
2023-02-06T05:39:10.272Z,100692.34
2023-02-06T05:41:37.580Z,100692.41
2023-02-06T05:44:05.171Z,100698.28
2023-02-06T05:46:32.885Z,100699.06
2023-02-06T05:49:02.003Z,100697.34
2023-02-06T05:51:29.588Z,100693.91
2023-02-06T05:53:56.919Z,100700.50
2023-02-06T05:56:24.212Z,100697.09
2023-02-06T05:58:51.607Z,100693.88
2023-02-06T06:01:18.797Z,100697.22
2023-02-06T06:03:46.253Z,100696.38
2023-02-06T06:06:15.002Z,100698.09
2023-02-06T06:08:42.406Z,100707.97
2023-02-06T06:11:09.719Z,100705.44
2023-02-06T06:13:37.004Z,100707.03
2023-02-06T06:16:05.280Z,100708.69
2023-02-06T06:18:32.681Z,100713.66
2023-02-06T06:21:00.234Z,100711.94
2023-02-06T06:23:29.011Z,100709.44
2023-02-06T06:25:56.490Z,100712.72
2023-02-06T06:28:24.149Z,100708.59
2023-02-06T06:30:51.394Z,100718.59
2023-02-06T06:33:19.233Z,100709.41
2023-02-06T06:35:46.471Z,100713.59
2023-02-06T06:38:13.673Z,100711.81
2023-02-06T06:40:42.859Z,100714.22
2023-02-06T06:43:10.261Z,100725.03
2023-02-06T06:45:37.819Z,100718.53
2023-02-06T06:48:05.480Z,100721.09
2023-02-06T06:50:33.440Z,100723.59
2023-02-06T06:53:00.891Z,100723.59
2023-02-06T06:55:28.223Z,100725.25
2023-02-06T06:57:56.831Z,100727.63
2023-02-06T07:00:24.478Z,100729.38
2023-02-06T07:02:52.097Z,100739.22
2023-02-06T07:05:19.583Z,100738.34
2023-02-06T07:07:47.070Z,100726.75
2023-02-06T07:10:14.549Z,100735.03
2023-02-06T07:12:42.013Z,100728.38
2023-02-06T07:15:11.145Z,100731.78
2023-02-06T07:17:38.960Z,100718.47
2023-02-06T07:20:07.071Z,100726.88
2023-02-06T07:22:34.337Z,100719.50
2023-02-06T07:25:01.551Z,100727.94
2023-02-06T07:27:30.798Z,100712.13
2023-02-06T07:29:58.145Z,100712.34
2023-02-06T07:32:26.882Z,100715.75
2023-02-06T07:34:54.049Z,100721.56
2023-02-06T07:37:21.434Z,100724.84
2023-02-06T07:39:48.883Z,100723.97
2023-02-06T07:42:16.166Z,100728.13
2023-02-06T07:44:51.682Z,100722.28
2023-02-06T07:47:19.032Z,100725.69
2023-02-06T07:49:47.603Z,100730.69
2023-02-06T07:52:16.099Z,100734.00
2023-02-06T07:54:43.327Z,100729.06
2023-02-06T07:57:10.670Z,100731.56
2023-02-06T07:59:37.945Z,100732.44
2023-02-06T08:02:05.328Z,100737.44
2023-02-06T08:04:35.725Z,100735.81
2023-02-06T08:07:05.575Z,100739.09
2023-02-06T08:09:33.056Z,100726.56
2023-02-06T08:12:00.315Z,100733.16
2023-02-06T08:14:28.654Z,100733.22
2023-02-06T08:16:56.229Z,100727.50
2023-02-06T08:19:23.879Z,100739.09
2023-02-06T08:21:51.555Z,100733.25
2023-02-06T08:24:20.252Z,100728.97
2023-02-06T08:26:47.670Z,100728.06
2023-02-06T08:29:15.282Z,100728.88
2023-02-06T08:31:43.434Z,100733.06
2023-02-06T08:34:13.289Z,100732.22
2023-02-06T08:36:43.360Z,100733.06
2023-02-06T08:39:13.110Z,100708.34
2023-02-06T08:41:43.477Z,100743.75
2023-02-06T08:44:12.862Z,100732.09
2023-02-06T08:46:40.712Z,100734.50
2023-02-06T08:49:12.105Z,100736.16
2023-02-06T08:51:39.509Z,100733.66
2023-02-06T08:54:11.302Z,100733.66
2023-02-06T08:56:39.030Z,100736.03
2023-02-06T08:59:08.429Z,100733.53
2023-02-06T09:01:36.821Z,100735.13
2023-02-06T09:04:06.734Z,100728.59
2023-02-06T09:06:36.670Z,100738.75
2023-02-06T09:09:05.288Z,100735.56
2023-02-06T09:11:33.484Z,100736.38
2023-02-06T09:14:02.621Z,100735.56
2023-02-06T09:16:34.628Z,100719.72
2023-02-06T09:19:02.571Z,100728.75
2023-02-06T09:21:31.594Z,100735.25
2023-02-06T09:24:00.858Z,100735.16
2023-02-06T09:26:29.627Z,100732.63
2023-02-06T09:28:58.909Z,100746.63
2023-02-06T09:31:27.441Z,100744.13
2023-02-06T09:33:57.097Z,100730.00
2023-02-06T09:36:24.575Z,100744.84
2023-02-06T09:38:53.730Z,100743.13
2023-02-06T09:41:27.684Z,100748.88
2023-02-06T09:43:59.189Z,100741.47
2023-02-06T09:46:31.995Z,100738.25
2023-02-06T09:49:08.307Z,100733.25
2023-02-06T09:51:45.331Z,100732.50
2023-02-06T09:54:25.144Z,100728.47
2023-02-06T09:56:55.148Z,100731.03
2023-02-06T09:59:30.402Z,100726.25
2023-02-06T10:02:16.766Z,100737.00
2023-02-06T10:04:53.775Z,100729.44
2023-02-06T10:07:40.181Z,100742.59
2023-02-06T10:10:14.907Z,100742.50
2023-02-06T10:12:47.378Z,100744.16
2023-02-06T10:15:18.506Z,100730.88
2023-02-06T10:17:50.620Z,100754.59
2023-02-06T10:20:27.842Z,100755.22
2023-02-06T10:23:09.864Z,100746.03
2023-02-06T10:25:40.603Z,100756.84
2023-02-06T10:28:21.819Z,100750.91
2023-02-06T10:31:08.234Z,100750.81
2023-02-06T10:33:45.013Z,100747.72
2023-02-06T10:36:31.120Z,100745.28
2023-02-06T10:39:23.628Z,100748.56
2023-02-06T10:42:03.907Z,100739.59
2023-02-06T10:44:36.606Z,100711.13
2023-02-06T10:47:11.215Z,100741.06
2023-02-06T10:49:44.395Z,100747.00
2023-02-06T10:52:18.488Z,100749.69
2023-02-06T10:54:52.314Z,100735.88
2023-02-06T10:57:22.243Z,100742.44
2023-02-06T10:59:53.963Z,100742.31
2023-02-06T11:02:25.779Z,100743.06
2023-02-06T11:04:59.842Z,100738.97
2023-02-06T11:07:33.423Z,100742.28
2023-02-06T11:10:01.367Z,100737.28
2023-02-06T11:12:35.870Z,100733.16
2023-02-06T11:15:08.033Z,100721.69
2023-02-06T11:17:36.339Z,100729.19
2023-02-06T11:20:18.254Z,100742.59
2023-02-06T11:22:52.632Z,100743.63
2023-02-06T11:25:25.884Z,100735.50
2023-02-06T11:27:53.791Z,100743.75
2023-02-06T11:30:41.057Z,100739.56
2023-02-06T11:33:19.945Z,100738.84
2023-02-06T11:35:51.331Z,100737.88
2023-02-06T11:38:22.323Z,100731.16
2023-02-06T11:40:57.005Z,100733.72
2023-02-06T11:43:26.002Z,100745.25
2023-02-06T11:46:07.911Z,100744.53
2023-02-06T11:48:38.629Z,100740.28
2023-02-06T11:51:07.350Z,100740.28
2023-02-06T11:53:37.181Z,100737.78
2023-02-06T11:56:13.748Z,100739.34
2023-02-06T11:58:41.076Z,100731.91
2023-02-06T12:01:16.674Z,100731.16
2023-02-06T12:03:57.086Z,100731.94
2023-02-06T12:06:30.839Z,100741.13
2023-02-06T12:09:01.310Z,100738.63
2023-02-06T12:11:34.635Z,100737.78
2023-02-06T12:14:07.199Z,100738.72
2023-02-06T12:16:37.997Z,100721.34
2023-02-06T12:19:11.728Z,100733.72
2023-02-06T12:21:43.210Z,100725.56
2023-02-06T12:24:30.748Z,100738.84
2023-02-06T12:27:01.201Z,100728.84
2023-02-06T12:29:34.997Z,100733.72
2023-02-06T12:32:09.418Z,100736.13
2023-02-06T12:34:54.076Z,100733.66
2023-02-06T12:37:31.611Z,100724.59
2023-02-06T12:40:01.193Z,100734.66
2023-02-06T12:42:37.129Z,100728.91
2023-02-06T12:45:15.114Z,100725.63
2023-02-06T12:47:46.701Z,100725.63
2023-02-06T12:50:17.368Z,100709.16
2023-02-06T12:52:49.053Z,100731.34
2023-02-06T12:55:22.976Z,100735.50
2023-02-06T12:57:51.114Z,100734.66
2023-02-06T13:00:38.961Z,100734.53
2023-02-06T13:03:23.623Z,100736.97
2023-02-06T13:05:54.828Z,100734.41
2023-02-06T13:08:27.731Z,100741.03
2023-02-06T13:11:07.154Z,100740.94
2023-02-06T13:13:37.801Z,100734.22
2023-02-06T13:16:06.654Z,100735.03
2023-02-06T13:18:52.719Z,100725.03
2023-02-06T13:21:28.685Z,100729.22
2023-02-06T13:24:17.030Z,100735.94
2023-02-06T13:27:16.710Z,100745.19
2023-02-06T13:29:45.618Z,100737.75
2023-02-06T13:32:41.096Z,100750.19
2023-02-06T13:35:20.509Z,100747.03
2023-02-06T13:37:49.864Z,100754.34
2023-02-06T13:40:30.794Z,100756.78
2023-02-06T13:43:04.355Z,100765.03
2023-02-06T13:45:36.265Z,100750.03
2023-02-06T13:48:37.379Z,100750.94
2023-02-06T13:51:24.343Z,100755.84
2023-02-06T13:54:21.175Z,100758.34
2023-02-06T13:57:04.912Z,100757.63
2023-02-06T13:59:37.172Z,100760.19
2023-02-06T14:02:12.289Z,100759.38
2023-02-06T14:04:40.723Z,100763.63
2023-02-06T14:07:29.283Z,100758.66
2023-02-06T14:10:27.359Z,100757.06
2023-02-06T14:13:04.363Z,100769.63
2023-02-06T14:15:41.495Z,100777.13
2023-02-06T14:18:20.570Z,100773.72
2023-02-06T14:20:56.108Z,100767.91
2023-02-06T14:23:35.770Z,100765.38
2023-02-06T14:26:18.626Z,100775.38
2023-02-06T14:28:56.914Z,100770.53
2023-02-06T14:31:41.738Z,100772.16
2023-02-06T14:34:30.168Z,100778.06
2023-02-06T14:37:37.867Z,100781.53
2023-02-06T14:40:13.967Z,100770.00
2023-02-06T14:42:44.777Z,100777.56
2023-02-06T14:45:27.068Z,100780.84
2023-02-06T14:48:01.228Z,100795.91
2023-02-06T14:50:31.922Z,100789.59
2023-02-06T14:53:07.846Z,100795.44
2023-02-06T14:55:39.615Z,100791.38
2023-02-06T14:58:19.195Z,100796.38
2023-02-06T15:00:52.174Z,100785.50
2023-02-06T15:03:22.795Z,100800.38
2023-02-06T15:06:00.291Z,100795.38
2023-02-06T15:08:29.195Z,100807.03
2023-02-06T15:11:01.262Z,100802.81
2023-02-06T15:13:35.059Z,100792.88
2023-02-06T15:16:06.717Z,100797.03
2023-02-06T15:18:36.660Z,100810.44
2023-02-06T15:21:06.367Z,100802.81
2023-02-06T15:23:45.825Z,100801.13
2023-02-06T15:26:25.510Z,100797.81
2023-02-06T15:28:57.155Z,100801.97
2023-02-06T15:31:24.961Z,100797.03
2023-02-06T15:33:56.874Z,100811.19
2023-02-06T15:36:28.599Z,100794.72
2023-02-06T15:38:56.601Z,100814.53
2023-02-06T15:41:24.447Z,100811.19
2023-02-06T15:43:57.095Z,100805.44
2023-02-06T15:46:24.545Z,100805.47
2023-02-06T15:48:55.150Z,100791.56
2023-02-06T15:51:25.400Z,100799.13
2023-02-06T15:54:05.677Z,100798.28
2023-02-06T15:56:37.003Z,100790.03
2023-02-06T15:59:07.183Z,100764.50
2023-02-06T16:01:38.941Z,100799.19
2023-02-06T16:04:12.744Z,100808.25
2023-02-06T16:06:40.069Z,100804.03
2023-02-06T16:09:08.574Z,100811.50
2023-02-06T16:11:47.579Z,100798.50
2023-02-06T16:14:21.081Z,100796.09
2023-02-06T16:16:57.390Z,100803.63
2023-02-06T16:19:39.440Z,100799.53
2023-02-06T16:22:15.744Z,100804.53
2023-02-06T16:24:43.897Z,100810.28
2023-02-06T16:27:20.682Z,100793.78
2023-02-06T16:29:51.162Z,100804.47
2023-02-06T16:32:22.967Z,100791.25
2023-02-06T16:34:52.694Z,100810.28
2023-02-06T16:37:22.211Z,100802.72
2023-02-06T16:39:49.971Z,100815.97
2023-02-06T16:42:20.748Z,100808.53
2023-02-06T16:44:51.338Z,100803.50
2023-02-06T16:47:20.464Z,100810.22
2023-02-06T16:49:48.440Z,100811.81
2023-02-06T16:52:20.941Z,100806.25
2023-02-06T16:54:48.945Z,100819.44
2023-02-06T16:57:26.898Z,100815.41
2023-02-06T16:59:57.609Z,100822.06
2023-02-06T17:02:26.305Z,100824.69
2023-02-06T17:04:54.040Z,100834.72
2023-02-06T17:07:25.124Z,100824.84
2023-02-06T17:09:54.428Z,100832.31
2023-02-06T17:12:23.014Z,100826.59
2023-02-06T17:14:50.695Z,100830.78
2023-02-06T17:17:21.272Z,100835.75
2023-02-06T17:19:49.629Z,100837.38
2023-02-06T17:22:17.128Z,100840.75
2023-02-06T17:24:46.318Z,100846.56
2023-02-06T17:27:16.009Z,100830.16
2023-02-06T17:29:46.347Z,100847.50
2023-02-06T17:32:16.367Z,100854.94
2023-02-06T17:34:43.740Z,100853.28
2023-02-06T17:37:20.690Z,100850.06
2023-02-06T17:39:51.406Z,100874.88
2023-02-06T17:42:19.407Z,100879.03
2023-02-06T17:44:46.996Z,100891.47
2023-02-06T17:47:14.567Z,100897.28
2023-02-06T17:49:41.849Z,100885.63
2023-02-06T17:52:09.311Z,100889.75
2023-02-06T17:54:36.761Z,100893.13
2023-02-06T17:57:05.716Z,100899.81
2023-02-06T17:59:33.361Z,100903.16
2023-02-06T18:02:01.460Z,100907.28
2023-02-06T18:04:29.475Z,100909.78
2023-02-06T18:06:57.053Z,100909.81
2023-02-06T18:09:24.288Z,100910.66
2023-02-06T18:11:51.849Z,100916.47
2023-02-06T18:14:21.689Z,100925.56
2023-02-06T18:16:48.871Z,100931.34
2023-02-06T18:19:18.975Z,100922.16
2023-02-06T18:21:46.319Z,100922.19
2023-02-06T18:24:13.526Z,100925.47
2023-02-06T18:26:40.940Z,100930.41
2023-02-06T18:29:08.653Z,100931.13
2023-02-06T18:31:37.625Z,100932.75
2023-02-06T18:34:08.075Z,100936.09
2023-02-06T18:36:36.365Z,100929.47
2023-02-06T18:39:04.576Z,100927.06
2023-02-06T18:41:50.380Z,100935.31
2023-02-06T18:44:17.715Z,100938.56
2023-02-06T18:46:46.460Z,100931.97
2023-02-06T18:49:13.911Z,100946.09
2023-02-06T18:51:41.419Z,100944.44
2023-02-06T18:54:10.012Z,100945.31
2023-02-06T18:56:38.043Z,100937.97
2023-02-06T18:59:05.803Z,100949.66
2023-02-06T19:01:33.487Z,100959.63
2023-02-06T19:04:02.452Z,100964.66
2023-02-06T19:06:35.398Z,100975.47
2023-02-06T19:09:09.365Z,100971.38
2023-02-06T19:11:37.404Z,100966.50
2023-02-06T19:14:05.756Z,100965.59
2023-02-06T19:16:34.359Z,100975.53
2023-02-06T19:19:03.085Z,100969.72
2023-02-06T19:21:30.441Z,100971.38
2023-02-06T19:23:59.670Z,100963.88
2023-02-06T19:26:28.381Z,100960.53
2023-02-06T19:28:56.354Z,100974.56
2023-02-06T19:31:24.151Z,100969.59
2023-02-06T19:33:53.980Z,100971.22
2023-02-06T19:36:24.768Z,100977.91
2023-02-06T19:38:55.037Z,100980.41
2023-02-06T19:41:24.100Z,100972.94
2023-02-06T19:43:53.575Z,100977.09
2023-02-06T19:46:22.955Z,100965.50
2023-02-06T19:48:51.410Z,100983.69
2023-02-06T19:51:20.800Z,100965.53
2023-02-06T19:53:51.078Z,100986.22
2023-02-06T19:56:20.370Z,100989.56
2023-02-06T19:58:48.315Z,100993.72
2023-02-06T20:01:17.175Z,100981.28
2023-02-06T20:03:44.829Z,100994.56
2023-02-06T20:06:13.855Z,100994.63
2023-02-06T20:08:43.189Z,100992.09
2023-02-06T20:11:14.392Z,100997.09
2023-02-06T20:13:42.220Z,101004.56
2023-02-06T20:16:14.676Z,101006.22
2023-02-06T20:18:42.345Z,101007.81
2023-02-06T20:21:20.967Z,100999.38
2023-02-06T20:23:49.964Z,101005.19
2023-02-06T20:26:20.965Z,101017.66
2023-02-06T20:28:49.223Z,101021.81
2023-02-06T20:31:17.345Z,101025.91
2023-02-06T20:33:45.395Z,101027.69
2023-02-06T20:36:15.658Z,101031.88
2023-02-06T20:38:43.418Z,101021.06
2023-02-06T20:41:10.774Z,101026.16
2023-02-06T20:43:39.606Z,101021.25
2023-02-06T20:46:08.360Z,101016.31
2023-02-06T20:48:36.201Z,101017.97
2023-02-06T20:51:05.384Z,101017.13
2023-02-06T20:53:32.685Z,101015.44
2023-02-06T20:55:59.994Z,101012.97
2023-02-06T20:58:28.224Z,101020.44
2023-02-06T21:00:57.281Z,101020.47
2023-02-06T21:03:24.563Z,101029.59
2023-02-06T21:05:57.120Z,101022.13
2023-02-06T21:08:24.892Z,101032.06
2023-02-06T21:10:52.802Z,101029.56
2023-02-06T21:13:20.277Z,101037.00
2023-02-06T21:15:51.397Z,101033.66
2023-02-06T21:18:20.861Z,101027.84
2023-02-06T21:20:48.391Z,101038.56
2023-02-06T21:23:15.735Z,101034.41
2023-02-06T21:25:43.395Z,101034.41
2023-02-06T21:28:10.863Z,101038.50
2023-02-06T21:30:38.571Z,101043.50
2023-02-06T21:33:06.458Z,101032.81
2023-02-06T21:35:37.043Z,101036.97
2023-02-06T21:38:04.271Z,101044.44
2023-02-06T21:40:31.526Z,101038.66
2023-02-06T21:42:58.702Z,101042.78
2023-02-06T21:45:26.089Z,101050.25
2023-02-06T21:47:53.612Z,101054.44
2023-02-06T21:50:21.459Z,101049.44
2023-02-06T21:52:50.205Z,101056.09
2023-02-06T21:55:17.630Z,101056.09
2023-02-06T21:57:44.882Z,101051.94
2023-02-06T22:00:13.545Z,101042.91
2023-02-06T22:02:40.971Z,101051.19
2023-02-06T22:05:08.736Z,101050.38
2023-02-06T22:07:36.763Z,101054.53
2023-02-06T22:10:07.021Z,101047.03
2023-02-06T22:12:34.829Z,101051.13
2023-02-06T22:15:02.352Z,101056.91
2023-02-06T22:17:31.819Z,101057.69
2023-02-06T22:19:59.080Z,101056.03
2023-02-06T22:22:26.637Z,101058.47
2023-02-06T22:24:54.293Z,101059.28
2023-02-06T22:27:25.732Z,101062.56
2023-02-06T22:29:53.081Z,101058.38
2023-02-06T22:32:20.409Z,101055.19
2023-02-06T22:34:48.182Z,101065.19
2023-02-06T22:37:16.094Z,101066.88
2023-02-06T22:39:43.703Z,101061.88
2023-02-06T22:42:11.004Z,101066.03
2023-02-06T22:44:40.153Z,101069.31
2023-02-06T22:47:07.462Z,101062.69
2023-02-06T22:49:34.984Z,101068.44
2023-02-06T22:52:02.303Z,101070.94
2023-02-06T22:54:29.863Z,101081.72
2023-02-06T22:56:57.136Z,101084.19
2023-02-06T22:59:25.738Z,101080.84
2023-02-06T23:01:56.036Z,101081.66
2023-02-06T23:04:25.514Z,101094.00
2023-02-06T23:06:53.368Z,101089.81
2023-02-06T23:09:25.218Z,101087.22
2023-02-06T23:11:53.171Z,101090.59
2023-02-06T23:14:20.844Z,101093.19
2023-02-06T23:16:48.755Z,101097.50
2023-02-06T23:19:18.455Z,101093.38
2023-02-06T23:21:47.942Z,101095.06
2023-02-06T23:24:16.041Z,101091.72
2023-02-06T23:26:45.573Z,101075.13
2023-02-06T23:29:17.976Z,101088.31
2023-02-06T23:31:47.258Z,101086.66
2023-02-06T23:34:15.505Z,101090.81
2023-02-06T23:36:44.933Z,101088.31
2023-02-06T23:39:12.574Z,101094.88
2023-02-06T23:41:40.108Z,101096.63
2023-02-06T23:44:10.280Z,101071.03
2023-02-06T23:46:39.582Z,101102.47
2023-02-06T23:49:07.436Z,101100.81
2023-02-06T23:51:36.558Z,101100.81
2023-02-06T23:54:06.610Z,101099.16
2023-02-06T23:56:33.997Z,101109.13
2023-02-06T23:59:02.379Z,101108.25
